createdAt,value
2018-08-23T00:00:47.214Z,12.05
2018-08-23T00:03:21.567Z,15.23
2018-08-23T00:05:53.962Z,13.20
2018-08-23T00:08:23.637Z,12.35
2018-08-23T00:10:53.586Z,13.00
2018-08-23T00:13:23.356Z,13.82
2018-08-23T00:15:52.603Z,15.85
2018-08-23T00:18:21.876Z,14.30
2018-08-23T00:20:51.102Z,13.20
2018-08-23T00:23:20.342Z,13.60
2018-08-23T00:25:49.572Z,13.45
2018-08-23T00:28:18.799Z,13.20
2018-08-23T00:30:48.054Z,13.50
2018-08-23T00:33:17.308Z,13.90
2018-08-23T00:35:46.542Z,14.20
2018-08-23T00:38:16.179Z,13.47
2018-08-23T00:40:45.781Z,13.38
2018-08-23T00:43:15.379Z,13.17
2018-08-23T00:45:44.762Z,13.77
2018-08-23T00:48:14.011Z,13.93
2018-08-23T00:50:54.394Z,14.73
2018-08-23T00:53:23.767Z,13.18
2018-08-23T00:56:26.615Z,13.80
2018-08-23T00:59:01.617Z,14.70
2018-08-23T01:01:31.483Z,12.70
2018-08-23T01:04:00.722Z,14.70
2018-08-23T01:06:45.539Z,13.27
2018-08-23T01:09:15.039Z,13.27
2018-08-23T01:11:46.781Z,13.33
2018-08-23T01:14:16.031Z,13.97
2018-08-23T01:17:03.225Z,12.63
2018-08-23T01:19:37.544Z,14.43
2018-08-23T01:22:07.920Z,13.27
2018-08-23T01:24:37.135Z,13.43
2018-08-23T01:27:10.933Z,14.13
2018-08-23T01:29:44.299Z,14.93
2018-08-23T01:32:17.865Z,12.33
2018-08-23T01:34:47.120Z,12.13
2018-08-23T01:37:34.732Z,12.57
2018-08-23T01:40:06.085Z,13.53
2018-08-23T01:42:36.424Z,13.73
2018-08-23T01:45:07.286Z,13.93
2018-08-23T01:47:45.135Z,13.27
2018-08-23T01:50:15.054Z,13.20
2018-08-23T01:52:44.987Z,14.03
2018-08-23T01:55:15.042Z,14.40
2018-08-23T01:57:44.616Z,13.67
2018-08-23T02:00:17.795Z,13.90
2018-08-23T02:02:47.138Z,13.43
2018-08-23T02:05:16.394Z,15.27
2018-08-23T02:07:45.643Z,15.07
2018-08-23T02:10:14.995Z,14.00
2018-08-23T02:12:50.906Z,13.87
2018-08-23T02:15:20.547Z,14.77
2018-08-23T02:17:52.918Z,16.67
2018-08-23T02:20:23.007Z,13.80
2018-08-23T02:22:52.627Z,13.00
2018-08-23T02:25:21.876Z,13.50
2018-08-23T02:28:10.123Z,12.97
2018-08-23T02:30:49.379Z,13.90
2018-08-23T02:33:18.660Z,12.77
2018-08-23T02:36:08.739Z,13.47
2018-08-23T02:38:37.994Z,14.57
2018-08-23T02:41:08.347Z,12.78
2018-08-23T02:43:37.609Z,12.67
2018-08-23T02:46:06.965Z,13.27
2018-08-23T02:48:36.293Z,13.87
2018-08-23T02:51:05.880Z,13.37
2018-08-23T02:53:40.813Z,15.33
2018-08-23T02:56:12.410Z,12.50
2018-08-23T02:59:04.441Z,12.97
2018-08-23T03:01:34.929Z,13.17
2018-08-23T03:04:17.947Z,12.47
2018-08-23T03:06:54.396Z,13.27
2018-08-23T03:09:29.043Z,13.00
2018-08-23T03:12:00.650Z,13.20
2018-08-23T03:14:30.530Z,13.57
2018-08-23T03:17:36.702Z,13.23
2018-08-23T03:20:10.561Z,12.77
2018-08-23T03:22:41.683Z,13.37
2018-08-23T03:25:12.383Z,12.23
2018-08-23T03:27:41.748Z,13.87
2018-08-23T03:30:12.508Z,13.70
2018-08-23T03:32:41.922Z,12.47
2018-08-23T03:35:11.861Z,12.58
2018-08-23T03:37:41.275Z,12.27
2018-08-23T03:40:11.647Z,12.57
2018-08-23T03:42:41.986Z,12.33
2018-08-23T03:45:16.784Z,12.37
2018-08-23T03:47:52.464Z,12.57
2018-08-23T03:50:21.785Z,13.23
2018-08-23T03:52:52.373Z,12.43
2018-08-23T03:55:23.584Z,12.40
2018-08-23T03:57:57.101Z,12.40
2018-08-23T04:00:32.375Z,12.23
2018-08-23T04:03:03.140Z,11.93
2018-08-23T04:05:32.597Z,12.50
2018-08-23T04:08:01.996Z,12.13
2018-08-23T04:10:32.408Z,12.73
2018-08-23T04:13:01.772Z,12.93
2018-08-23T04:15:32.079Z,11.80
2018-08-23T04:18:08.427Z,13.57
2018-08-23T04:20:48.355Z,13.77
2018-08-23T04:23:17.857Z,13.08
2018-08-23T04:25:47.289Z,13.03
2018-08-23T04:28:16.731Z,12.07
2018-08-23T04:30:46.162Z,11.90
2018-08-23T04:33:15.642Z,12.60
2018-08-23T04:35:45.052Z,13.13
2018-08-23T04:38:14.481Z,12.13
2018-08-23T04:40:56.915Z,12.50
2018-08-23T04:43:26.356Z,11.77
2018-08-23T04:45:55.904Z,10.87
2018-08-23T04:48:25.397Z,13.53
2018-08-23T04:50:54.789Z,12.63
2018-08-23T04:53:24.296Z,11.40
2018-08-23T04:55:53.690Z,12.67
2018-08-23T04:58:23.049Z,12.30
2018-08-23T05:00:52.471Z,12.00
2018-08-23T05:03:21.926Z,13.10
2018-08-23T05:05:51.278Z,11.30
2018-08-23T05:08:20.649Z,12.57
2018-08-23T05:10:50.041Z,11.37
2018-08-23T05:13:19.574Z,11.50
2018-08-23T05:15:48.919Z,10.20
2018-08-23T05:18:18.317Z,11.33
2018-08-23T05:20:47.735Z,11.57
2018-08-23T05:23:17.196Z,10.80
2018-08-23T05:25:46.610Z,11.10
2018-08-23T05:28:19.405Z,12.73
2018-08-23T05:30:49.542Z,10.57
2018-08-23T05:33:22.998Z,10.27
2018-08-23T05:35:52.899Z,10.88
2018-08-23T05:38:22.261Z,16.23
2018-08-23T05:41:00.524Z,9.83
2018-08-23T05:43:29.898Z,8.68
2018-08-23T05:45:59.323Z,9.30
2018-08-23T05:48:31.900Z,10.47
2018-08-23T05:51:08.688Z,12.45
2018-08-23T05:53:46.406Z,11.23
2018-08-23T05:56:15.802Z,9.77
2018-08-23T05:58:45.249Z,10.50
2018-08-23T06:01:14.679Z,10.28
2018-08-23T06:03:44.063Z,11.08
2018-08-23T06:06:13.486Z,11.03
2018-08-23T06:08:46.838Z,12.78
2018-08-23T06:11:16.899Z,11.48
2018-08-23T06:13:46.359Z,10.58
2018-08-23T06:16:15.709Z,9.45
2018-08-23T06:18:45.056Z,9.83
2018-08-23T06:21:14.397Z,7.90
2018-08-23T06:24:05.582Z,9.20
2018-08-23T06:26:43.243Z,7.93
2018-08-23T06:29:19.592Z,8.03
2018-08-23T06:31:59.363Z,8.53
2018-08-23T06:34:30.417Z,8.00
2018-08-23T06:36:59.754Z,8.23
2018-08-23T06:39:29.167Z,7.63
2018-08-23T06:42:01.712Z,6.55
2018-08-23T06:44:43.706Z,6.72
2018-08-23T06:47:14.757Z,7.60
2018-08-23T06:49:45.306Z,6.40
2018-08-23T06:52:39.045Z,6.47
2018-08-23T06:55:13.632Z,6.30
2018-08-23T06:57:48.745Z,6.90
2018-08-23T07:00:23.276Z,7.17
2018-08-23T07:02:52.677Z,7.90
2018-08-23T07:05:22.165Z,5.12
2018-08-23T07:07:51.795Z,6.30
2018-08-23T07:10:21.175Z,5.53
2018-08-23T07:12:50.637Z,7.27
2018-08-23T07:15:20.170Z,6.03
2018-08-23T07:17:49.541Z,6.10
2018-08-23T07:20:20.093Z,5.33
2018-08-23T07:22:49.491Z,5.37
2018-08-23T07:25:19.647Z,4.93
2018-08-23T07:27:49.055Z,5.27
2018-08-23T07:30:19.738Z,5.15
2018-08-23T07:32:50.948Z,6.30
2018-08-23T07:35:21.359Z,7.70
2018-08-23T07:37:52.308Z,5.62
2018-08-23T07:40:22.832Z,5.77
2018-08-23T07:42:53.396Z,5.73
2018-08-23T07:45:22.886Z,5.67
2018-08-23T07:47:55.424Z,5.67
2018-08-23T07:50:24.836Z,6.20
2018-08-23T07:52:55.070Z,5.15
2018-08-23T07:55:24.404Z,5.83
2018-08-23T07:57:53.797Z,5.33
2018-08-23T08:00:30.377Z,5.87
2018-08-23T08:02:59.763Z,4.87
2018-08-23T08:05:30.401Z,5.80
2018-08-23T08:07:59.989Z,5.28
2018-08-23T08:10:39.230Z,4.90
2018-08-23T08:13:08.618Z,4.70
2018-08-23T08:15:38.011Z,4.87
2018-08-23T08:18:23.548Z,5.07
2018-08-23T08:21:03.511Z,5.73
2018-08-23T08:23:33.452Z,5.17
2018-08-23T08:26:02.812Z,7.40
2018-08-23T08:28:32.215Z,5.40
2018-08-23T08:31:02.556Z,5.80
2018-08-23T08:33:34.955Z,5.25
2018-08-23T08:36:05.168Z,4.92
2018-08-23T08:38:35.191Z,5.62
2018-08-23T08:41:04.610Z,5.70
2018-08-23T08:43:34.020Z,5.13
2018-08-23T08:46:03.402Z,5.27
2018-08-23T08:48:34.066Z,5.58
2018-08-23T08:51:28.931Z,5.40
2018-08-23T08:53:59.578Z,5.42
2018-08-23T08:56:34.667Z,5.47
2018-08-23T08:59:04.036Z,7.25
2018-08-23T09:01:33.749Z,5.20
2018-08-23T09:04:03.283Z,5.72
2018-08-23T09:06:37.928Z,5.27
2018-08-23T09:09:14.262Z,5.77
2018-08-23T09:11:43.671Z,5.50
2018-08-23T09:14:13.068Z,5.73
2018-08-23T09:16:42.543Z,5.42
2018-08-23T09:19:11.925Z,5.17
2018-08-23T09:21:42.492Z,6.53
2018-08-23T09:24:26.676Z,5.27
2018-08-23T09:26:57.734Z,5.80
2018-08-23T09:29:36.939Z,6.55
2018-08-23T09:32:19.807Z,6.70
2018-08-23T09:34:49.718Z,7.10
2018-08-23T09:37:19.047Z,5.62
2018-08-23T09:39:48.352Z,5.58
2018-08-23T09:42:17.645Z,5.80
2018-08-23T09:45:05.664Z,4.83
2018-08-23T09:47:35.006Z,5.22
2018-08-23T09:50:04.775Z,5.00
2018-08-23T09:52:38.644Z,5.60
2018-08-23T09:55:10.385Z,6.27
2018-08-23T09:57:39.776Z,5.35
2018-08-23T10:00:14.070Z,5.25
2018-08-23T10:02:48.580Z,5.42
2018-08-23T10:05:23.301Z,5.15
2018-08-23T10:07:57.755Z,5.17
2018-08-23T10:10:32.452Z,5.55
2018-08-23T10:13:07.068Z,5.95
2018-08-23T10:15:43.990Z,5.00
2018-08-23T10:18:18.657Z,4.90
2018-08-23T10:20:54.792Z,4.85
2018-08-23T10:23:25.068Z,4.97
2018-08-23T10:25:55.530Z,4.80
2018-08-23T10:28:27.128Z,5.07
2018-08-23T10:30:56.986Z,4.90
2018-08-23T10:33:26.332Z,5.23
2018-08-23T10:35:56.463Z,5.12
2018-08-23T10:38:27.884Z,5.20
2018-08-23T10:41:02.311Z,5.70
2018-08-23T10:43:36.984Z,5.85
2018-08-23T10:46:06.732Z,5.25
2018-08-23T10:48:36.067Z,4.93
2018-08-23T10:51:05.508Z,5.00
2018-08-23T10:53:34.924Z,4.03
2018-08-23T10:56:04.559Z,4.92
2018-08-23T10:58:33.881Z,4.77
2018-08-23T11:01:03.201Z,4.73
2018-08-23T11:03:32.480Z,5.22
2018-08-23T11:06:01.780Z,5.80
2018-08-23T11:08:35.838Z,4.97
2018-08-23T11:11:10.627Z,5.08
2018-08-23T11:13:45.079Z,4.87
2018-08-23T11:16:19.429Z,5.87
2018-08-23T11:18:53.853Z,5.28
2018-08-23T11:21:23.156Z,5.70
2018-08-23T11:23:52.501Z,5.83
2018-08-23T11:26:25.039Z,4.70
2018-08-23T11:28:54.336Z,5.15
2018-08-23T11:31:28.528Z,5.17
2018-08-23T11:33:57.876Z,6.62
2018-08-23T11:36:27.197Z,4.45
2018-08-23T11:38:56.539Z,6.20
2018-08-23T11:41:26.002Z,5.07
2018-08-23T11:43:55.486Z,5.17
2018-08-23T11:46:24.804Z,4.90
2018-08-23T11:48:54.176Z,5.60
2018-08-23T11:51:22.519Z,4.83
2018-08-23T11:53:51.930Z,5.17
2018-08-23T11:56:21.231Z,5.25
2018-08-23T11:58:50.682Z,4.90
2018-08-23T12:01:20.057Z,5.23
2018-08-23T12:03:49.368Z,5.30
2018-08-23T12:06:18.724Z,8.83
2018-08-23T12:08:48.125Z,5.83
2018-08-23T12:11:17.514Z,5.37
2018-08-23T12:13:48.737Z,7.80
2018-08-23T12:16:18.340Z,6.00
2018-08-23T12:18:47.991Z,7.12
2018-08-23T12:21:17.386Z,5.92
2018-08-23T12:23:46.749Z,6.00
2018-08-23T12:26:16.252Z,6.20
2018-08-23T12:28:50.686Z,5.70
2018-08-23T12:31:20.099Z,6.90
2018-08-23T12:33:49.598Z,6.12
2018-08-23T12:36:24.297Z,7.35
2018-08-23T12:38:58.997Z,5.72
2018-08-23T12:41:33.483Z,6.00
2018-08-23T12:44:02.940Z,6.67
2018-08-23T12:46:32.482Z,6.03
2018-08-23T12:49:01.836Z,5.83
2018-08-23T12:51:31.265Z,5.93
2018-08-23T12:54:01.351Z,6.10
2018-08-23T12:56:30.844Z,6.97
2018-08-23T12:59:00.211Z,6.20
2018-08-23T13:01:29.663Z,9.07
2018-08-23T13:03:59.173Z,6.76
2018-08-23T13:06:28.480Z,6.20
2018-08-23T13:08:57.821Z,6.25
2018-08-23T13:11:27.256Z,5.83
2018-08-23T13:13:56.615Z,6.60
2018-08-23T13:16:25.938Z,9.70
2018-08-23T13:18:55.335Z,6.60
2018-08-23T13:21:24.722Z,5.83
2018-08-23T13:23:54.059Z,8.60
2018-08-23T13:26:27.597Z,6.63
2018-08-23T13:28:57.055Z,6.15
2018-08-23T13:31:26.536Z,5.65
2018-08-23T13:33:56.335Z,6.33
2018-08-23T13:36:25.864Z,6.87
2018-08-23T13:38:55.247Z,6.17
2018-08-23T13:41:24.782Z,6.37
2018-08-23T13:43:54.196Z,6.55
2018-08-23T13:46:23.486Z,6.55
2018-08-23T13:48:53.021Z,6.50
2018-08-23T13:51:22.429Z,8.03
2018-08-23T13:53:51.938Z,8.75
2018-08-23T13:56:21.335Z,7.05
2018-08-23T13:58:50.731Z,6.37
2018-08-23T14:01:23.469Z,7.57
2018-08-23T14:03:53.004Z,9.23
2018-08-23T14:06:22.420Z,6.72
2018-08-23T14:08:51.918Z,9.03
2018-08-23T14:11:21.627Z,6.67
2018-08-23T14:13:50.993Z,6.83
2018-08-23T14:16:20.490Z,7.60
2018-08-23T14:18:50.118Z,10.50
2018-08-23T14:21:19.554Z,7.78
2018-08-23T14:23:49.005Z,6.80
2018-08-23T14:26:18.420Z,6.67
2018-08-23T14:28:47.854Z,7.77
2018-08-23T14:31:17.383Z,7.10
2018-08-23T14:33:46.772Z,7.00
2018-08-23T14:36:16.708Z,6.63
2018-08-23T14:38:46.365Z,7.13
2018-08-23T14:41:15.857Z,5.72
2018-08-23T14:43:46.189Z,5.40
2018-08-23T14:46:20.901Z,5.30
2018-08-23T14:48:50.720Z,6.95
2018-08-23T14:51:20.306Z,5.95
2018-08-23T14:53:49.814Z,5.60
2018-08-23T14:56:24.373Z,6.77
2018-08-23T14:58:54.089Z,8.15
2018-08-23T15:01:23.441Z,12.05
2018-08-23T15:03:52.869Z,6.50
2018-08-23T15:06:22.268Z,5.40
2018-08-23T15:08:51.605Z,6.27
2018-08-23T15:11:21.075Z,6.85
2018-08-23T15:13:50.418Z,6.42
2018-08-23T15:16:19.860Z,5.37
2018-08-23T15:18:49.201Z,6.20
2018-08-23T15:21:18.676Z,5.75
2018-08-23T15:23:47.994Z,7.30
2018-08-23T15:26:17.528Z,5.25
2018-08-23T15:28:46.783Z,6.17
2018-08-23T15:31:16.109Z,6.10
2018-08-23T15:33:45.548Z,5.28
2018-08-23T15:36:14.900Z,5.47
2018-08-23T15:38:44.303Z,7.08
2018-08-23T15:41:13.698Z,6.13
2018-08-23T15:43:43.096Z,6.67
2018-08-23T15:46:12.572Z,6.10
2018-08-23T15:48:41.965Z,5.30
2018-08-23T15:51:11.329Z,6.40
2018-08-23T15:53:40.814Z,8.58
2018-08-23T15:56:10.276Z,6.45
2018-08-23T15:58:39.674Z,7.67
2018-08-23T16:01:09.310Z,6.78
2018-08-23T16:03:38.709Z,7.47
2018-08-23T16:06:08.064Z,5.93
2018-08-23T16:08:42.801Z,5.20
2018-08-23T16:11:12.335Z,6.35
2018-08-23T16:13:41.757Z,5.75
2018-08-23T16:17:15.836Z,6.28
2018-08-23T16:19:50.438Z,6.00
2018-08-23T16:22:19.846Z,5.87
2018-08-23T16:24:49.241Z,4.63
2018-08-23T16:27:18.673Z,4.70
2018-08-23T16:29:51.124Z,6.15
2018-08-23T16:32:25.706Z,4.70
2018-08-23T16:34:55.138Z,5.03
2018-08-23T16:37:24.529Z,5.92
2018-08-23T16:39:53.851Z,4.23
2018-08-23T16:42:23.170Z,4.30
2018-08-23T16:44:52.551Z,5.53
2018-08-23T16:47:21.975Z,4.35
2018-08-23T16:49:51.382Z,4.50
2018-08-23T16:52:20.779Z,5.42
2018-08-23T16:54:50.191Z,5.72
2018-08-23T16:57:19.533Z,4.78
2018-08-23T16:59:49.001Z,5.58
2018-08-23T17:02:18.424Z,6.43
2018-08-23T17:04:47.844Z,4.73
2018-08-23T17:07:17.743Z,4.58
2018-08-23T17:09:47.147Z,5.90
2018-08-23T17:12:16.650Z,5.70
2018-08-23T17:14:46.018Z,4.40
2018-08-23T17:17:52.879Z,4.40
2018-08-23T17:20:22.295Z,6.37
2018-08-23T17:22:51.641Z,4.83
2018-08-23T17:25:21.124Z,6.50
2018-08-23T17:27:50.644Z,4.37
2018-08-23T17:30:20.044Z,4.20
2018-08-23T17:32:49.396Z,4.97
2018-08-23T17:35:18.808Z,4.37
2018-08-23T17:37:48.159Z,5.85
2018-08-23T17:40:17.576Z,4.20
2018-08-23T17:42:47.093Z,4.43
2018-08-23T17:45:16.589Z,5.40
2018-08-23T17:47:46.069Z,3.70
2018-08-23T17:50:15.486Z,3.95
2018-08-23T17:52:44.870Z,5.20
2018-08-23T17:55:14.148Z,5.90
2018-08-23T17:57:43.508Z,4.95
2018-08-23T18:00:12.898Z,5.17
2018-08-23T18:02:42.239Z,3.95
2018-08-23T18:05:11.640Z,3.57
2018-08-23T18:07:41.100Z,4.07
2018-08-23T18:10:10.521Z,5.95
2018-08-23T18:12:39.932Z,6.28
2018-08-23T18:15:10.080Z,5.30
2018-08-23T18:17:40.512Z,4.97
2018-08-23T18:20:10.220Z,4.50
2018-08-23T18:22:39.684Z,4.55
2018-08-23T18:25:09.481Z,6.62
2018-08-23T18:27:40.071Z,5.97
2018-08-23T18:30:09.581Z,4.57
2018-08-23T18:32:39.118Z,4.33
2018-08-23T18:35:08.445Z,4.22
2018-08-23T18:37:38.048Z,4.42
2018-08-23T18:40:07.358Z,4.47
2018-08-23T18:42:36.786Z,4.40
2018-08-23T18:45:06.256Z,7.87
2018-08-23T18:47:35.702Z,4.50
2018-08-23T18:50:05.903Z,5.40
2018-08-23T18:52:35.424Z,4.20
2018-08-23T18:55:05.208Z,4.80
2018-08-23T18:57:35.377Z,6.60
2018-08-23T19:00:06.320Z,4.30
2018-08-23T19:02:36.716Z,4.53
2018-08-23T19:05:06.212Z,4.33
2018-08-23T19:07:40.620Z,4.78
2018-08-23T19:10:11.305Z,3.73
2018-08-23T19:12:40.945Z,3.92
2018-08-23T19:15:11.245Z,4.20
2018-08-23T19:17:41.719Z,3.95
2018-08-23T19:20:12.459Z,3.97
2018-08-23T19:22:41.884Z,4.20
2018-08-23T19:25:11.617Z,3.92
2018-08-23T19:27:40.891Z,4.40
2018-08-23T19:30:10.790Z,5.35
2018-08-23T19:32:40.121Z,3.70
2018-08-23T19:35:09.581Z,4.53
2018-08-23T19:37:39.001Z,4.53
2018-08-23T19:40:08.957Z,5.05
2018-08-23T19:42:38.320Z,3.65
2018-08-23T19:45:07.803Z,4.10
2018-08-23T19:47:48.781Z,3.47
2018-08-23T19:50:19.172Z,6.78
2018-08-23T19:52:49.249Z,4.15
2018-08-23T19:55:19.175Z,5.90
2018-08-23T19:57:50.433Z,4.83
2018-08-23T20:00:20.885Z,4.00
2018-08-23T20:02:50.288Z,4.45
2018-08-23T20:05:19.644Z,4.12
2018-08-23T20:07:49.073Z,6.03
2018-08-23T20:10:18.758Z,4.72
2018-08-23T20:12:48.447Z,4.55
2018-08-23T20:15:27.600Z,6.17
2018-08-23T20:17:57.646Z,4.10
2018-08-23T20:20:28.061Z,5.67
2018-08-23T20:22:58.174Z,3.60
2018-08-23T20:25:28.174Z,4.90
2018-08-23T20:27:58.611Z,4.65
2018-08-23T20:30:28.460Z,4.00
2018-08-23T20:32:58.436Z,4.47
2018-08-23T20:35:28.552Z,3.87
2018-08-23T20:37:59.939Z,3.93
2018-08-23T20:40:29.792Z,4.42
2018-08-23T20:43:00.302Z,3.77
2018-08-23T20:45:30.039Z,6.03
2018-08-23T20:47:59.953Z,4.93
2018-08-23T20:50:30.599Z,4.10
2018-08-23T20:53:00.779Z,4.97
2018-08-23T20:55:30.306Z,4.12
2018-08-23T20:57:59.774Z,4.50
2018-08-23T21:00:29.459Z,4.20
2018-08-23T21:02:59.289Z,4.12
2018-08-23T21:05:28.643Z,4.30
2018-08-23T21:07:57.977Z,4.40
2018-08-23T21:10:27.301Z,4.70
2018-08-23T21:12:56.742Z,4.42
2018-08-23T21:15:26.108Z,4.62
2018-08-23T21:17:55.474Z,4.22
2018-08-23T21:20:24.827Z,4.20
2018-08-23T21:22:54.137Z,4.60
2018-08-23T21:25:23.454Z,4.10
2018-08-23T21:27:52.855Z,4.50
2018-08-23T21:30:22.236Z,4.87
2018-08-23T21:32:51.574Z,3.70
2018-08-23T21:35:20.931Z,4.90
2018-08-23T21:37:50.338Z,3.98
2018-08-23T21:40:19.765Z,5.40
2018-08-23T21:42:49.179Z,4.87
2018-08-23T21:45:18.669Z,4.00
2018-08-23T21:47:48.082Z,4.07
2018-08-23T21:50:17.508Z,3.95
2018-08-23T21:52:46.923Z,4.22
2018-08-23T21:55:16.303Z,4.95
2018-08-23T21:57:45.696Z,4.27
2018-08-23T22:00:15.121Z,4.17
2018-08-23T22:02:44.518Z,4.20
2018-08-23T22:05:13.907Z,6.00
2018-08-23T22:07:43.256Z,4.50
2018-08-23T22:10:12.655Z,4.20
2018-08-23T22:12:42.059Z,4.53
2018-08-23T22:15:12.768Z,4.45
2018-08-23T22:17:42.076Z,4.33
2018-08-23T22:20:11.639Z,4.53
2018-08-23T22:22:41.092Z,4.00
2018-08-23T22:25:10.610Z,3.77
2018-08-23T22:27:40.052Z,4.55
2018-08-23T22:30:09.415Z,4.37
2018-08-23T22:32:38.785Z,4.40
2018-08-23T22:35:08.163Z,5.50
2018-08-23T22:37:37.886Z,6.58
2018-08-23T22:40:07.467Z,4.53
2018-08-23T22:42:36.951Z,4.25
2018-08-23T22:45:06.389Z,5.80
2018-08-23T22:47:35.753Z,4.37
2018-08-23T22:50:05.455Z,4.33
2018-08-23T22:52:34.837Z,5.00
2018-08-23T22:55:04.171Z,4.53
2018-08-23T22:57:33.484Z,4.53
2018-08-23T23:00:02.941Z,5.20
2018-08-23T23:02:38.763Z,4.35
2018-08-23T23:05:09.208Z,4.67
2018-08-23T23:07:38.614Z,4.73
2018-08-23T23:10:08.603Z,5.87
2018-08-23T23:12:38.033Z,4.70
2018-08-23T23:15:11.503Z,5.83
2018-08-23T23:17:40.868Z,5.03
2018-08-23T23:20:10.239Z,5.12
2018-08-23T23:22:39.632Z,5.50
2018-08-23T23:25:09.007Z,5.03
2018-08-23T23:27:38.366Z,5.25
2018-08-23T23:30:08.068Z,4.63
2018-08-23T23:32:37.406Z,4.97
2018-08-23T23:35:06.772Z,4.87
2018-08-23T23:37:36.185Z,6.37
2018-08-23T23:40:05.576Z,6.43
2018-08-23T23:42:34.926Z,8.35
2018-08-23T23:45:04.590Z,6.65
2018-08-23T23:47:33.937Z,6.03
2018-08-23T23:50:03.461Z,4.83
2018-08-23T23:52:32.805Z,4.73
2018-08-23T23:55:02.187Z,5.15
2018-08-23T23:57:31.519Z,5.60
